Time;durP1;ratioP1;P1;durP2;ratioP2;P2;SDS_P1;SDS_P2;PMS_P1;PMS_P2;Temp;Humidity;BMP_temperature;BMP_pressure;BME280_temperature;BME280_humidity;BME280_pressure;Samples;Min_cycle;Max_cycle;Signal;HPM_P1;HPM_P2
2024/04/11 00:00:34;;;;;;;10.38;3.55;;;358.90;2329.60;;;;;;5376932;26;19996;-75
2024/04/11 00:03:00;;;;;;;7.55;3.38;;;358.90;2329.60;;;;;;5376118;26;20062;-75
2024/04/11 00:05:26;;;;;;;6.45;3.47;;;358.80;2329.60;;;;;;5377294;26;20077;-75
2024/04/11 00:07:51;;;;;;;5.13;3.08;;;358.90;2329.60;;;;;;5376456;26;20008;-75
2024/04/11 00:10:17;;;;;;;10.07;3.63;;;358.80;2329.60;;;;;;5376437;26;20438;-75
2024/04/11 00:12:43;;;;;;;12.77;3.85;;;358.90;2329.60;;;;;;5376388;26;20445;-75
2024/04/11 00:15:09;;;;;;;6.10;3.55;;;358.80;2329.60;;;;;;5375760;26;20004;-75
2024/04/11 00:17:35;;;;;;;5.65;3.90;;;358.90;2329.60;;;;;;5376108;26;20360;-75
2024/04/11 00:20:01;;;;;;;6.15;3.25;;;358.80;2329.60;;;;;;5375769;26;20007;-76
2024/04/11 00:22:27;;;;;;;6.00;3.50;;;358.90;2329.60;;;;;;5376925;26;20007;-75
2024/04/11 00:24:53;;;;;;;5.13;3.50;;;358.80;2329.60;;;;;;5375649;26;20003;-75
2024/04/11 00:27:19;;;;;;;7.85;3.53;;;358.80;2329.60;;;;;;5376644;26;20004;-76
2024/04/11 00:29:45;;;;;;;6.38;3.13;;;358.70;2329.60;;;;;;5376188;26;20073;-77
2024/04/11 00:32:11;;;;;;;6.03;3.78;;;358.70;2329.60;;;;;;5376673;26;20078;-76
2024/04/11 00:34:38;;;;;;;5.70;3.65;;;358.60;2329.60;;;;;;5375616;26;20117;-75
2024/04/11 00:37:05;;;;;;;8.90;3.80;;;358.60;2329.60;;;;;;5376964;26;20014;-75
2024/04/11 00:39:31;;;;;;;10.02;3.65;;;358.50;2329.60;;;;;;5375635;26;20442;-75
2024/04/11 00:41:56;;;;;;;6.40;3.50;;;358.50;2329.60;;;;;;5376028;26;20004;-76
2024/04/11 00:44:24;;;;;;;7.15;3.60;;;358.50;2329.60;;;;;;5375664;26;20007;-76
2024/04/11 00:46:53;;;;;;;8.07;3.83;;;358.40;2329.60;;;;;;5376450;26;20001;-76
2024/04/11 00:49:22;;;;;;;15.13;4.40;;;358.50;2329.60;;;;;;5375713;26;20019;-76
2024/04/11 00:51:50;;;;;;;6.32;3.58;;;358.40;2329.60;;;;;;5376228;26;20008;-76
2024/04/11 00:54:17;;;;;;;7.55;4.05;;;358.50;2329.60;;;;;;5376037;26;20000;-76
2024/04/11 00:56:44;;;;;;;8.30;4.18;;;358.40;2329.60;;;;;;5376446;26;20008;-76
2024/04/11 00:59:16;;;;;;;7.82;3.75;;;358.40;2329.60;;;;;;5374387;26;20004;-74
2024/04/11 01:01:44;;;;;;;8.07;4.68;;;358.40;2329.60;;;;;;5376587;26;20015;-75
2024/04/11 01:04:10;;;;;;;8.57;4.55;;;333.70;2329.60;;;;;;5375472;26;20073;-75
2024/04/11 01:09:34;;;;;;;9.32;4.15;;;333.70;2329.60;;;;;;5375654;26;20018;-76
2024/04/11 01:12:01;;;;;;;6.47;4.20;;;333.60;2329.60;;;;;;5353741;26;20481;-76
2024/04/11 01:14:27;;;;;;;9.88;4.35;;;333.60;2329.60;;;;;;5375264;26;20019;-78
2024/04/11 01:16:53;;;;;;;6.97;3.88;;;333.70;2329.60;;;;;;5376030;26;20004;-76
2024/04/11 01:19:19;;;;;;;8.23;4.00;;;333.70;2329.60;;;;;;5375233;26;20004;-75
2024/04/11 01:21:46;;;;;;;6.50;4.80;;;333.70;2329.60;;;;;;5374700;26;20019;-76
2024/04/11 01:24:15;;;;;;;9.57;4.60;;;333.70;2329.60;;;;;;5375450;26;20000;-77
2024/04/11 01:26:41;;;;;;;6.18;4.25;;;333.70;2329.60;;;;;;5376017;26;20015;-76
2024/04/11 01:29:07;;;;;;;7.07;4.30;;;333.70;2329.60;;;;;;5374347;26;20465;-77
2024/04/11 01:31:40;;;;;;;6.75;4.82;;;358.60;2329.60;;;;;;5375492;26;20008;-77
2024/04/11 01:34:06;;;;;;;7.07;4.32;;;333.70;2329.60;;;;;;5374669;26;20011;-76
2024/04/11 01:36:32;;;;;;;6.03;3.85;;;333.70;2329.60;;;;;;5375956;26;20000;-76
2024/04/11 01:38:58;;;;;;;9.38;4.57;;;333.70;2329.60;;;;;;5374951;26;20004;-76
2024/04/11 01:41:24;;;;;;;9.02;4.80;;;333.70;2329.60;;;;;;5376414;26;20000;-77
2024/04/11 01:43:50;;;;;;;5.72;4.10;;;333.70;2329.60;;;;;;5373937;26;20446;-77
2024/04/11 01:46:18;;;;;;;13.40;4.68;;;333.60;2329.60;;;;;;5375842;26;20022;-78
2024/04/11 01:48:47;;;;;;;7.97;4.78;;;333.60;2329.60;;;;;;5351575;26;20051;-77
2024/04/11 01:51:14;;;;;;;12.98;4.63;;;333.50;2329.60;;;;;;5376425;26;20035;-77
2024/04/11 01:53:40;;;;;;;7.68;4.13;;;333.60;2329.60;;;;;;5374672;26;20004;-76
2024/04/11 01:56:06;;;;;;;9.43;4.85;;;333.50;2329.60;;;;;;5375963;26;20369;-77
2024/04/11 01:58:32;;;;;;;8.15;5.05;;;333.40;2329.60;;;;;;5374207;26;20027;-76
2024/04/11 02:01:09;;;;;;;7.45;4.35;;;333.40;2329.60;;;;;;5375947;26;20011;-76
2024/04/11 02:03:36;;;;;;;11.93;5.63;;;333.40;2329.60;;;;;;5375300;26;19997;-76
2024/04/11 02:06:03;;;;;;;9.23;4.97;;;333.40;2329.60;;;;;;5375398;26;20011;-75
2024/04/11 02:08:32;;;;;;;6.28;4.15;;;333.40;2329.60;;;;;;5374989;26;20005;-77
2024/04/11 02:10:58;;;;;;;7.35;4.55;;;333.40;2329.60;;;;;;5374999;26;20531;-76
2024/04/11 02:13:24;;;;;;;8.57;4.00;;;333.40;2329.60;;;;;;5375181;26;20000;-76
2024/04/11 02:15:50;;;;;;;6.55;4.72;;;333.30;2329.60;;;;;;5374576;26;20011;-76
2024/04/11 02:18:16;;;;;;;6.32;4.95;;;333.30;2329.60;;;;;;5375251;26;20073;-75
2024/04/11 02:20:42;;;;;;;7.22;5.00;;;333.30;2329.60;;;;;;5374622;26;20004;-76
2024/04/11 02:23:08;;;;;;;7.75;4.93;;;333.30;2329.60;;;;;;5374747;26;20012;-76
2024/04/11 02:25:34;;;;;;;7.25;4.97;;;333.20;2329.60;;;;;;5374654;26;20000;-76
2024/04/11 02:28:00;;;;;;;7.90;5.00;;;333.20;2329.60;;;;;;5374594;26;20047;-76
2024/04/11 02:30:26;;;;;;;7.30;5.18;;;333.20;2329.60;;;;;;5374520;26;20015;-75
2024/04/11 02:32:52;;;;;;;9.63;5.90;;;333.20;2329.60;;;;;;5374557;26;20000;-76
2024/04/11 02:35:18;;;;;;;10.23;5.45;;;333.20;2329.60;;;;;;5374469;26;20370;-76
2024/04/11 02:37:44;;;;;;;8.85;5.82;;;333.20;2329.60;;;;;;5375601;26;20012;-76
2024/04/11 02:40:10;;;;;;;10.70;5.60;;;333.20;2329.60;;;;;;5374692;26;20036;-76
2024/04/11 02:42:40;;;;;;;6.97;4.97;;;333.10;2329.60;;;;;;5374122;26;20000;-75
2024/04/11 02:45:12;;;;;;;7.50;5.28;;;333.10;2329.60;;;;;;5374436;26;20072;-76
2024/04/11 02:47:38;;;;;;;9.27;5.53;;;333.10;2329.60;;;;;;5353064;26;20346;-77
2024/04/11 02:50:06;;;;;;;10.15;6.25;;;333.00;2329.60;;;;;;5374250;26;20069;-75
2024/04/11 02:52:34;;;;;;;9.45;6.28;;;333.00;2329.60;;;;;;5372948;26;20620;-77
2024/04/11 02:55:00;;;;;;;11.00;5.72;;;332.90;2329.60;;;;;;5373846;26;20000;-76
2024/04/11 02:57:26;;;;;;;7.18;5.20;;;332.90;2329.60;;;;;;5374759;26;20010;-76
2024/04/11 02:59:53;;;;;;;8.55;5.45;;;332.90;2329.60;;;;;;5373935;26;19996;-75
2024/04/11 03:02:23;;;;;;;9.00;5.32;;;332.80;2329.60;;;;;;5374561;26;20000;-77
2024/04/11 03:04:51;;;;;;;7.55;5.35;;;332.80;2329.60;;;;;;5373390;26;20004;-76
2024/04/11 03:07:22;;;;;;;15.10;5.60;;;332.80;2329.60;;;;;;5374007;26;20007;-76
2024/04/11 03:09:53;;;;;;;7.35;5.78;;;332.80;2329.60;;;;;;5373491;26;20011;-76
2024/04/11 03:12:20;;;;;;;7.30;5.95;;;308.10;2304.00;;;;;;5374205;26;20005;-75
2024/04/11 03:14:46;;;;;;;9.70;6.35;;;308.00;2304.00;;;;;;5373257;26;20005;-76
2024/04/11 03:17:13;;;;;;;11.02;5.97;;;308.00;2304.00;;;;;;5374892;26;20011;-75
2024/04/11 03:19:39;;;;;;;8.25;5.50;;;308.00;2304.00;;;;;;5373268;26;20019;-76
2024/04/11 03:22:08;;;;;;;6.72;4.75;;;308.10;2304.00;;;;;;5374602;26;20000;-77
2024/04/11 03:24:34;;;;;;;9.35;5.18;;;308.10;2304.00;;;;;;5373195;26;19996;-75
2024/04/11 03:27:02;;;;;;;10.52;5.70;;;308.10;2304.00;;;;;;5374010;26;20464;-77
2024/04/11 03:29:29;;;;;;;8.48;4.97;;;307.90;2304.00;;;;;;5372668;26;20004;-75
2024/04/11 03:31:55;;;;;;;11.27;4.95;;;307.70;2304.00;;;;;;5374248;26;20454;-76
2024/04/11 03:34:22;;;;;;;7.32;5.57;;;307.70;2304.00;;;;;;5372540;26;20008;-75
2024/04/11 03:36:49;;;;;;;8.82;5.72;;;307.80;2304.00;;;;;;5373585;26;20004;-76
2024/04/11 03:39:15;;;;;;;8.82;5.78;;;307.70;2304.00;;;;;;5372962;26;20042;-75
2024/04/11 03:41:52;;;;;;;7.28;5.45;;;307.80;2304.00;;;;;;5373806;26;20004;-76
2024/04/11 03:44:18;;;;;;;9.70;5.93;;;307.70;2304.00;;;;;;5373079;26;20037;-76
2024/04/11 03:46:44;;;;;;;8.82;6.10;;;307.60;2304.00;;;;;;5379014;26;20000;-76
2024/04/11 03:49:10;;;;;;;10.50;6.10;;;307.70;2304.00;;;;;;5379346;26;20075;-76
2024/04/11 03:51:39;;;;;;;11.75;6.00;;;307.70;2304.00;;;;;;5379559;26;20004;-77
2024/04/11 03:54:06;;;;;;;12.75;7.22;;;307.60;2304.00;;;;;;5381369;26;20000;-77
2024/04/11 03:56:32;;;;;;;7.40;5.85;;;307.70;2304.00;;;;;;5383014;26;20438;-77
2024/04/11 03:58:58;;;;;;;8.88;6.47;;;307.70;2304.00;;;;;;5382823;26;20000;-76
2024/04/11 04:01:28;;;;;;;7.15;5.60;;;307.70;2304.00;;;;;;5382831;26;20371;-76
2024/04/11 04:03:57;;;;;;;7.90;5.72;;;307.60;2304.00;;;;;;5383081;26;20000;-76
2024/04/11 04:06:23;;;;;;;13.15;7.13;;;307.60;2304.00;;;;;;5382922;26;20020;-76
2024/04/11 04:08:50;;;;;;;8.63;6.07;;;307.60;2304.00;;;;;;5383016;26;20405;-77
2024/04/11 04:11:22;;;;;;;11.43;6.53;;;307.60;2304.00;;;;;;5383034;26;20000;-76
2024/04/11 04:13:50;;;;;;;9.07;6.22;;;307.70;2304.00;;;;;;5383145;26;20140;-78
2024/04/11 04:16:19;;;;;;;9.82;6.82;;;307.70;2304.00;;;;;;5383021;26;20098;-78
2024/04/11 04:18:46;;;;;;;8.82;6.13;;;308.00;2304.00;;;;;;5383052;26;20007;-74
2024/04/11 04:21:16;;;;;;;11.20;6.30;;;307.80;2304.00;;;;;;5382776;26;20070;-74
2024/04/11 04:23:42;;;;;;;9.27;7.55;;;307.80;2304.00;;;;;;5382893;26;20095;-75
2024/04/11 04:26:09;;;;;;;9.38;5.57;;;307.80;2304.00;;;;;;5382593;26;20065;-74
2024/04/11 04:28:38;;;;;;;9.18;6.20;;;308.00;2304.00;;;;;;5382809;26;20000;-75
2024/04/11 04:31:17;;;;;;;8.65;6.68;;;308.00;2304.00;;;;;;5380896;26;20318;-75
2024/04/11 04:33:47;;;;;;;7.63;5.95;;;308.10;2304.00;;;;;;5382666;26;20390;-74
2024/04/11 04:36:25;;;;;;;9.90;6.55;;;308.10;2304.00;;;;;;5382703;26;20000;-73
2024/04/11 04:38:54;;;;;;;10.75;5.93;;;332.80;2329.60;;;;;;5382747;26;20012;-75
2024/04/11 04:41:21;;;;;;;7.95;6.38;;;333.00;2329.60;;;;;;5382511;26;20004;-75
2024/04/11 04:43:54;;;;;;;8.88;5.82;;;332.90;2329.60;;;;;;5382676;26;19996;-74
2024/04/11 04:46:29;;;;;;;12.57;6.47;;;333.10;2329.60;;;;;;5381929;26;20010;-74
2024/04/11 04:48:55;;;;;;;10.15;5.63;;;333.00;2329.60;;;;;;5382179;26;20007;-75
2024/04/11 04:51:26;;;;;;;8.63;5.82;;;333.10;2329.60;;;;;;5382077;26;20403;-74
2024/04/11 04:53:53;;;;;;;8.02;5.70;;;333.20;2329.60;;;;;;5382284;26;20011;-74
2024/04/11 04:56:22;;;;;;;9.68;6.03;;;333.20;2329.60;;;;;;5382231;26;20005;-74
2024/04/11 04:58:51;;;;;;;9.40;5.53;;;333.40;2329.60;;;;;;5382030;26;19996;-76
2024/04/11 05:01:17;;;;;;;8.50;5.40;;;333.50;2329.60;;;;;;5381893;26;20069;-75
2024/04/11 05:03:45;;;;;;;8.18;5.32;;;358.80;2329.60;;;;;;5382069;26;20465;-74
2024/04/11 05:06:13;;;;;;;9.23;5.55;;;358.50;2329.60;;;;;;5381583;26;20024;-75
2024/04/11 05:08:46;;;;;;;9.35;6.05;;;358.70;2329.60;;;;;;5382479;26;19996;-74
2024/04/11 05:11:16;;;;;;;9.32;5.82;;;358.80;2329.60;;;;;;5381953;26;20011;-75
2024/04/11 05:13:45;;;;;;;8.45;6.05;;;359.00;2329.60;;;;;;5381919;26;20007;-74
2024/04/11 05:16:18;;;;;;;8.35;5.72;;;359.20;2329.60;;;;;;5381810;26;20032;-75
2024/04/11 05:18:46;;;;;;;7.63;5.07;;;384.00;2329.60;;;;;;5381857;26;20000;-74
2024/04/11 05:21:23;;;;;;;7.60;5.18;;;384.20;2329.60;;;;;;5381835;26;20329;-75
2024/04/11 05:23:49;;;;;;;7.80;4.90;;;384.90;2329.60;;;;;;5381649;26;20000;-76
2024/04/11 05:26:22;;;;;;;13.32;5.65;;;410.20;2355.20;;;;;;5381727;26;20007;-75
2024/04/11 05:28:48;;;;;;;8.98;6.00;;;410.10;2355.20;;;;;;5379648;26;20008;-74
2024/04/11 05:31:18;;;;;;;8.73;5.00;;;410.00;2355.20;;;;;;5381847;26;20446;-74
2024/04/11 05:33:47;;;;;;;7.53;5.05;;;410.40;2355.20;;;;;;5381713;26;20069;-73
2024/04/11 05:36:17;;;;;;;12.80;5.35;;;435.30;2355.20;;;;;;5382278;26;20323;-75
2024/04/11 05:38:46;;;;;;;9.82;5.07;;;435.90;2355.20;;;;;;5381542;26;19996;-74
2024/04/11 05:41:14;;;;;;;6.82;4.90;;;435.80;2355.20;;;;;;5381733;26;20057;-74
2024/04/11 05:43:43;;;;;;;17.02;4.82;;;460.80;2380.80;;;;;;5379216;26;20000;-78
2024/04/11 05:46:18;;;;;;;6.57;5.07;;;435.70;2355.20;;;;;;5381443;26;20000;-75
2024/04/11 05:48:44;;;;;;;6.35;4.97;;;435.30;2355.20;;;;;;5381324;26;20430;-76
2024/04/11 05:51:10;;;;;;;7.22;4.97;;;410.50;2355.20;;;;;;5381851;26;20011;-77
2024/04/11 05:53:41;;;;;;;10.77;4.65;;;410.20;2355.20;;;;;;5381637;26;20298;-78
2024/04/11 05:56:08;;;;;;;9.52;4.57;;;409.90;2355.20;;;;;;5381664;26;20038;-76
2024/04/11 05:58:37;;;;;;;6.75;4.25;;;409.70;2355.20;;;;;;5381678;26;20000;-76
2024/04/11 06:01:05;;;;;;;6.35;4.70;;;409.60;2355.20;;;;;;5381806;26;20035;-77
2024/04/11 06:03:40;;;;;;;6.10;5.13;;;409.60;2355.20;;;;;;5381417;26;20461;-77
2024/04/11 06:06:11;;;;;;;7.90;4.22;;;409.60;2355.20;;;;;;5381421;26;20010;-77
2024/04/11 06:08:38;;;;;;;8.23;4.22;;;384.90;2329.60;;;;;;5381190;26;19996;-77
2024/04/11 06:11:06;;;;;;;8.70;4.57;;;409.70;2355.20;;;;;;5381292;26;20352;-77
2024/04/11 06:13:32;;;;;;;9.23;4.60;;;409.70;2355.20;;;;;;5381102;26;20434;-76
2024/04/11 06:16:00;;;;;;;7.78;4.75;;;409.60;2355.20;;;;;;5380216;26;19996;-74
2024/04/11 06:18:28;;;;;;;7.22;4.25;;;409.60;2355.20;;;;;;5381042;26;20012;-78
2024/04/11 06:24:18;;;;;;;7.90;4.43;;;410.20;2355.20;;;;;;5381119;26;20003;-76
2024/04/11 06:26:45;;;;;;;6.80;4.50;;;410.50;2355.20;;;;;;5380958;26;20004;-75
2024/04/11 06:29:11;;;;;;;10.50;6.18;;;435.30;2355.20;;;;;;5378660;26;20004;-78
2024/04/11 06:31:38;;;;;;;20.92;14.52;;;435.60;2355.20;;;;;;5373587;26;20028;-78
2024/04/11 06:34:05;;;;;;;27.08;18.67;;;435.90;2355.20;;;;;;5374931;26;20003;-78
2024/04/11 06:36:33;;;;;;;17.42;9.10;;;436.10;2355.20;;;;;;5357221;26;20011;-79
2024/04/11 06:39:02;;;;;;;9.68;5.78;;;461.00;2380.80;;;;;;5345905;26;20086;-77
2024/04/11 06:41:27;;;;;;;6.45;4.57;;;461.40;2380.80;;;;;;5372565;26;20008;-80
2024/04/11 06:43:53;;;;;;;19.15;10.18;;;461.40;2380.80;;;;;;5372637;26;20446;-80
2024/04/11 06:46:19;;;;;;;13.82;10.63;;;461.60;2380.80;;;;;;5374022;26;20013;-81
2024/04/11 06:48:49;;;;;;;21.98;12.57;;;486.70;2304.00;;;;;;5374858;26;20011;-80
2024/04/11 06:51:19;;;;;;;11.93;5.85;;;486.80;2304.00;;;;;;5374797;26;20019;-81
2024/04/11 06:53:46;;;;;;;9.88;6.05;;;486.70;2304.00;;;;;;5374637;26;20462;-80
2024/04/11 06:56:17;;;;;;;13.43;7.57;;;461.50;2355.20;;;;;;5372596;26;20446;-80
2024/04/11 06:58:45;;;;;;;9.73;5.05;;;461.40;2355.20;;;;;;5367299;26;20012;-81
2024/04/11 07:01:15;;;;;;;9.52;6.53;;;460.90;2380.80;;;;;;5358220;26;20000;-81
2024/04/11 07:03:49;;;;;;;10.30;5.50;;;460.80;2380.80;;;;;;5372457;26;20007;-81
2024/04/11 07:06:22;;;;;;;12.77;7.85;;;460.80;2380.80;;;;;;5363908;26;20012;-80
2024/04/11 07:08:54;;;;;;;10.02;6.55;;;460.90;2380.80;;;;;;5374754;26;20000;-80
2024/04/11 07:11:27;;;;;;;11.77;7.13;;;461.10;2380.80;;;;;;5362171;26;20015;-81
2024/04/11 07:13:54;;;;;;;12.17;6.93;;;461.10;2380.80;;;;;;5351742;26;20001;-81
2024/04/11 07:16:26;;;;;;;13.15;6.55;;;461.20;2380.80;;;;;;5360641;26;20007;-81
2024/04/11 07:18:55;;;;;;;12.40;7.03;;;461.30;2380.80;;;;;;5373137;26;20045;-80
2024/04/11 07:21:25;;;;;;;18.48;12.68;;;461.10;2380.80;;;;;;5374111;26;20554;-81
2024/04/11 07:23:57;;;;;;;21.65;10.07;;;461.10;2380.80;;;;;;5369489;26;20000;-80
2024/04/11 07:26:33;;;;;;;14.60;7.55;;;461.10;2380.80;;;;;;5358258;26;20011;-78
2024/04/11 07:29:01;;;;;;;13.00;6.35;;;461.00;2355.20;;;;;;5349534;26;20431;-78
2024/04/11 07:31:28;;;;;;;12.82;5.82;;;461.30;2380.80;;;;;;5357362;26;20507;-78
2024/04/11 07:33:55;;;;;;;12.95;5.50;;;461.50;2329.60;;;;;;5347377;26;20001;-78
2024/04/11 07:36:22;;;;;;;8.93;6.18;;;461.50;2329.60;;;;;;5364257;26;19997;-78
2024/04/11 07:38:53;;;;;;;9.70;6.28;;;486.40;2329.60;;;;;;5344236;26;19997;-80
2024/04/11 07:41:23;;;;;;;13.73;9.13;;;486.50;2278.40;;;;;;5340824;26;20000;-81
2024/04/11 07:43:57;;;;;;;12.20;8.15;;;486.80;2252.80;;;;;;5365185;26;20076;-79
2024/04/11 07:46:29;;;;;;;11.90;6.63;;;486.80;2252.80;;;;;;5370812;26;20136;-81
2024/04/11 07:48:58;;;;;;;8.38;7.28;;;487.00;2252.80;;;;;;5370634;26;20011;-80
2024/04/11 07:51:26;;;;;;;16.80;12.55;;;487.00;2227.20;;;;;;5375660;26;20011;-81
2024/04/11 07:53:52;;;;;;;15.80;11.43;;;487.00;2227.20;;;;;;5374819;26;20035;-80
2024/04/11 07:56:20;;;;;;;18.27;12.65;;;512.10;2176.00;;;;;;5377388;26;20025;-80
2024/04/11 07:58:55;;;;;;;14.60;10.90;;;512.30;2150.40;;;;;;5377273;26;20011;-80
2024/04/11 08:01:31;;;;;;;17.27;12.88;;;512.30;2150.40;;;;;;5375277;26;20032;-79
2024/04/11 08:03:57;;;;;;;18.27;11.65;;;512.50;2124.80;;;;;;5376381;26;20073;-80
2024/04/11 08:06:24;;;;;;;14.00;8.05;;;537.70;2150.40;;;;;;5370047;26;20343;-80
2024/04/11 08:08:51;;;;;;;10.82;6.13;;;538.20;2099.20;;;;;;5348458;26;20001;-80
2024/04/11 08:11:17;;;;;;;11.07;8.35;;;538.20;2073.60;;;;;;5368326;26;20579;-80
2024/04/11 08:13:45;;;;;;;11.93;7.40;;;538.20;2073.60;;;;;;5376439;26;19996;-79
2024/04/11 08:16:11;;;;;;;17.02;8.60;;;538.10;2073.60;;;;;;5359567;26;20025;-80
2024/04/11 08:18:37;;;;;;;9.35;6.45;;;538.00;2073.60;;;;;;5376260;26;20022;-81
2024/04/11 08:21:08;;;;;;;10.63;6.78;;;512.90;2073.60;;;;;;5376588;26;20318;-78
2024/04/11 08:23:43;;;;;;;9.82;6.70;;;512.70;2124.80;;;;;;5374699;26;20240;-80
2024/04/11 08:26:12;;;;;;;12.70;7.80;;;512.30;2124.80;;;;;;5368652;26;20033;-81
2024/04/11 08:28:39;;;;;;;12.13;7.88;;;512.30;2124.80;;;;;;5367736;26;20011;-80
2024/04/11 08:31:06;;;;;;;10.50;7.20;;;512.30;2150.40;;;;;;5376154;26;20004;-80
2024/04/11 08:33:33;;;;;;;12.43;8.05;;;512.20;2150.40;;;;;;5375061;26;20073;-81
2024/04/11 08:36:00;;;;;;;15.13;9.50;;;512.30;2150.40;;;;;;5373745;26;20458;-80
2024/04/11 08:38:26;;;;;;;14.32;7.53;;;512.40;2150.40;;;;;;5375366;26;20044;-80
2024/04/11 08:40:57;;;;;;;13.93;8.38;;;512.60;2124.80;;;;;;5373744;26;20010;-81
2024/04/11 08:43:27;;;;;;;17.75;10.32;;;512.70;2124.80;;;;;;5374557;26;20015;-80
2024/04/11 08:45:53;;;;;;;15.57;9.48;;;512.90;2099.20;;;;;;5375519;26;20000;-80
2024/04/11 08:48:19;;;;;;;18.42;11.93;;;538.00;2099.20;;;;;;5376182;26;19993;-79
2024/04/11 08:50:48;;;;;;;12.07;9.88;;;538.20;2073.60;;;;;;5376410;26;20012;-79
2024/04/11 08:53:17;;;;;;;12.18;9.57;;;538.10;2073.60;;;;;;5376604;26;19996;-80
2024/04/11 08:55:43;;;;;;;16.30;10.32;;;563.20;2073.60;;;;;;5376410;26;20000;-80
2024/04/11 08:58:09;;;;;;;13.50;10.40;;;538.50;2022.40;;;;;;5375665;26;20000;-79
2024/04/11 09:00:45;;;;;;;16.75;10.27;;;563.20;2073.60;;;;;;5376082;26;20000;-79
2024/04/11 09:03:13;;;;;;;15.25;10.68;;;563.50;2048.00;;;;;;5376235;26;20434;-80
2024/04/11 09:05:39;;;;;;;14.63;10.07;;;563.80;1996.80;;;;;;5374930;26;20004;-80
2024/04/11 09:08:05;;;;;;;14.90;10.73;;;563.60;2022.40;;;;;;5375871;26;20004;-80
2024/04/11 09:10:31;;;;;;;15.20;9.85;;;564.00;1996.80;;;;;;5375295;26;20032;-79
2024/04/11 09:13:00;;;;;;;13.77;10.40;;;589.00;1945.60;;;;;;5375794;26;20007;-80
2024/04/11 09:15:26;;;;;;;14.25;10.73;;;589.30;1920.00;;;;;;5375725;26;20015;-80
2024/04/11 09:17:55;;;;;;;15.80;9.88;;;589.60;1920.00;;;;;;5375753;26;20027;-80
2024/04/11 09:20:24;;;;;;;13.15;8.52;;;589.60;1894.40;;;;;;5374559;26;20058;-78
2024/04/11 09:22:59;;;;;;;14.20;9.15;;;589.60;1920.00;;;;;;5373772;26;20000;-80
2024/04/11 09:25:34;;;;;;;13.75;8.13;;;589.10;1920.00;;;;;;5374822;26;21791;-78
2024/04/11 09:28:00;;;;;;;16.25;8.93;;;589.30;1920.00;;;;;;5374856;26;20008;-79
2024/04/11 09:30:32;;;;;;;10.68;8.60;;;589.20;1920.00;;;;;;5375131;26;20095;-81
2024/04/11 09:33:04;;;;;;;13.93;9.20;;;589.00;1945.60;;;;;;5373587;26;20073;-80
2024/04/11 09:35:40;;;;;;;13.40;8.73;;;589.40;1945.60;;;;;;5373165;26;20024;-79
2024/04/11 09:38:12;;;;;;;13.20;8.88;;;589.30;1920.00;;;;;;5376418;26;20426;-80
2024/04/11 09:40:50;;;;;;;14.23;9.20;;;589.40;1920.00;;;;;;5373605;26;20400;-79
2024/04/11 09:43:17;;;;;;;12.50;9.35;;;589.10;1920.00;;;;;;5373735;26;20019;-80
2024/04/11 09:45:56;;;;;;;15.13;9.15;;;589.20;1945.60;;;;;;5374933;26;20002;-80
2024/04/11 09:48:25;;;;;;;13.93;10.85;;;588.90;1945.60;;;;;;5374542;26;20073;-79
2024/04/11 09:50:54;;;;;;;12.20;9.75;;;588.90;1945.60;;;;;;5351947;26;20004;-78
2024/04/11 09:53:26;;;;;;;17.90;9.85;;;589.00;1945.60;;;;;;5372942;26;20015;-79
2024/04/11 09:55:56;;;;;;;14.35;8.95;;;589.20;1945.60;;;;;;5376081;26;20004;-79
2024/04/11 09:58:29;;;;;;;29.27;19.83;;;589.20;1920.00;;;;;;5374641;26;20019;-80
2024/04/11 10:01:05;;;;;;;23.15;12.48;;;588.90;1945.60;;;;;;5375816;26;20000;-80
2024/04/11 10:03:40;;;;;;;14.25;9.73;;;588.90;1971.20;;;;;;5374320;26;20016;-80
2024/04/11 10:06:13;;;;;;;20.77;14.35;;;564.00;1971.20;;;;;;5375604;26;20023;-80
2024/04/11 10:08:42;;;;;;;15.73;8.73;;;563.90;1996.80;;;;;;5374225;26;20004;-80
2024/04/11 10:11:12;;;;;;;16.13;9.73;;;563.80;1971.20;;;;;;5373399;26;20000;-79
2024/04/11 10:13:42;;;;;;;13.43;9.25;;;563.50;1996.80;;;;;;5349677;26;20349;-77
2024/04/11 10:16:21;;;;;;;17.42;10.48;;;563.30;2022.40;;;;;;5374691;26;20015;-78
2024/04/11 10:18:53;;;;;;;16.35;8.80;;;563.80;1996.80;;;;;;5374777;26;20000;-78
2024/04/11 10:21:29;;;;;;;11.98;9.60;;;564.00;1996.80;;;;;;5370417;26;20004;-76
2024/04/11 10:23:55;;;;;;;17.40;10.65;;;564.10;1971.20;;;;;;5359634;26;19996;-75
2024/04/11 10:26:34;;;;;;;14.73;10.15;;;588.90;1971.20;;;;;;5366481;26;19992;-78
2024/04/11 10:29:18;;;;;;;18.98;10.85;;;588.90;1971.20;;;;;;5344588;26;20005;-78
2024/04/11 10:31:45;;;;;;;15.40;10.32;;;589.20;1971.20;;;;;;5356839;26;20116;-76
2024/04/11 10:34:19;;;;;;;13.57;9.02;;;588.80;1971.20;;;;;;5370043;26;20014;-77
2024/04/11 10:36:53;;;;;;;14.95;9.82;;;589.30;1971.20;;;;;;5359929;26;20473;-77
2024/04/11 10:39:19;;;;;;;12.85;9.52;;;589.00;1971.20;;;;;;5356091;26;20000;-76
2024/04/11 10:41:51;;;;;;;14.77;9.32;;;563.60;1996.80;;;;;;5358602;26;20016;-77
2024/04/11 10:44:18;;;;;;;13.02;9.75;;;563.90;1996.80;;;;;;5359183;26;20037;-77
2024/04/11 10:46:44;;;;;;;11.43;9.68;;;563.70;1996.80;;;;;;5369833;26;20009;-78
2024/04/11 10:49:15;;;;;;;14.18;9.27;;;563.70;2022.40;;;;;;5352300;26;20417;-77
2024/04/11 10:51:42;;;;;;;14.13;10.68;;;563.80;1996.80;;;;;;5341923;26;20005;-77
2024/04/11 10:54:11;;;;;;;15.57;11.65;;;588.80;1996.80;;;;;;5351462;26;20477;-77
2024/04/11 10:56:41;;;;;;;15.57;10.30;;;589.10;1971.20;;;;;;5355906;26;20483;-78
2024/04/11 10:59:17;;;;;;;14.48;10.88;;;588.80;1971.20;;;;;;5361936;26;20032;-79
2024/04/11 11:01:50;;;;;;;15.60;10.32;;;589.10;1945.60;;;;;;5357680;26;20012;-78
2024/04/11 11:04:20;;;;;;;12.20;10.73;;;589.50;1971.20;;;;;;5355595;26;20012;-78
2024/04/11 11:06:54;;;;;;;12.60;9.88;;;614.40;1945.60;;;;;;5359284;26;19996;-78
2024/04/11 11:09:22;;;;;;;15.55;10.13;;;589.60;1920.00;;;;;;5365290;26;20000;-77
2024/04/11 11:11:49;;;;;;;15.18;10.75;;;589.60;1894.40;;;;;;5365463;26;20054;-78
2024/04/11 11:14:20;;;;;;;15.43;10.27;;;614.50;1894.40;;;;;;5370502;26;20092;-78
2024/04/11 11:16:50;;;;;;;13.43;10.60;;;589.60;1894.40;;;;;;5352909;26;20004;-77
2024/04/11 11:19:17;;;;;;;13.00;10.02;;;589.10;1945.60;;;;;;5358588;26;19996;-78
2024/04/11 11:21:50;;;;;;;13.68;11.05;;;589.10;1945.60;;;;;;5361322;26;20012;-78
2024/04/11 11:24:26;;;;;;;14.35;10.52;;;589.10;1945.60;;;;;;5359057;26;20069;-78
2024/04/11 11:26:59;;;;;;;16.48;11.15;;;589.20;1971.20;;;;;;5360570;26;20008;-76
2024/04/11 11:29:29;;;;;;;16.27;11.32;;;589.20;1945.60;;;;;;5353328;26;20015;-78
2024/04/11 11:32:03;;;;;;;12.95;11.32;;;589.60;1945.60;;;;;;5359959;26;20004;-79
2024/04/11 11:34:42;;;;;;;15.15;11.75;;;589.60;1920.00;;;;;;5355714;26;20596;-78
2024/04/11 11:37:12;;;;;;;12.73;10.88;;;589.70;1920.00;;;;;;5347721;26;20509;-77
2024/04/11 11:39:42;;;;;;;17.45;11.25;;;589.60;1920.00;;;;;;5361691;26;20005;-80
2024/04/11 11:42:56;;;;;;;13.55;11.48;;;614.40;1894.40;;;;;;5361941;26;20001;-79
2024/04/11 11:47:33;;;;;;;14.40;11.45;;;589.70;1920.00;;;;;;5355690;26;19996;-77
2024/04/11 11:50:10;;;;;;;15.50;10.80;;;589.60;1894.40;;;;;;5359404;26;20000;-78
2024/04/11 11:52:37;;;;;;;14.68;11.82;;;614.50;1894.40;;;;;;5356565;26;19996;-77
2024/04/11 11:55:04;;;;;;;14.15;11.63;;;589.40;1945.60;;;;;;5350765;26;20001;-77
2024/04/11 11:57:41;;;;;;;12.90;11.50;;;589.40;1920.00;;;;;;5357724;26;20471;-78
2024/04/11 12:00:26;;;;;;;14.18;11.55;;;614.40;1920.00;;;;;;5360275;26;20006;-78
2024/04/11 12:02:55;;;;;;;17.88;11.10;;;614.40;1920.00;;;;;;5347027;26;20012;-78
2024/04/11 12:05:25;;;;;;;15.45;12.15;;;614.70;1920.00;;;;;;5360523;26;19993;-79
2024/04/11 12:07:58;;;;;;;13.45;11.05;;;614.80;1894.40;;;;;;5357699;26;20004;-76
2024/04/11 12:13:18;;;;;;;15.45;10.60;;;614.90;1894.40;;;;;;5344728;26;20027;-77
2024/04/11 12:15:48;;;;;;;17.00;11.55;;;614.90;1868.80;;;;;;5357738;26;20136;-78
2024/04/11 12:18:23;;;;;;;15.00;12.60;;;614.80;1894.40;;;;;;5342671;26;20003;-77
2024/04/11 12:20:53;;;;;;;15.02;11.77;;;614.80;1894.40;;;;;;5349066;26;20339;-77
2024/04/11 12:23:23;;;;;;;17.38;12.70;;;614.90;1894.40;;;;;;5369562;26;20351;-78
2024/04/11 12:25:50;;;;;;;16.40;12.18;;;614.90;1868.80;;;;;;5354202;26;20040;-78
2024/04/11 12:28:19;;;;;;;15.18;12.68;;;614.60;1894.40;;;;;;5352317;26;20019;-79
2024/04/11 12:30:46;;;;;;;16.77;13.00;;;614.60;1894.40;;;;;;5347159;26;20012;-78